createdAt,value
2022-10-25T00:00:32.139Z,13.20
2022-10-25T00:02:59.865Z,13.20
2022-10-25T00:05:27.587Z,13.20
2022-10-25T00:07:55.321Z,13.20
2022-10-25T00:10:25.599Z,13.20
2022-10-25T00:12:53.650Z,13.20
2022-10-25T00:15:22.794Z,13.20
2022-10-25T00:17:51.260Z,13.10
2022-10-25T00:20:19.846Z,13.20
2022-10-25T00:22:47.838Z,13.20
2022-10-25T00:25:16.026Z,13.20
2022-10-25T00:27:43.811Z,13.20
2022-10-25T00:30:13.090Z,13.20
2022-10-25T00:32:42.197Z,13.20
2022-10-25T00:35:10.714Z,13.20
2022-10-25T00:37:38.567Z,13.20
2022-10-25T00:40:07.323Z,13.20
2022-10-25T00:42:35.040Z,13.20
2022-10-25T00:45:04.123Z,13.20
2022-10-25T00:47:41.390Z,13.20
2022-10-25T00:50:22.109Z,13.20
2022-10-25T00:52:53.242Z,13.20
2022-10-25T00:55:24.036Z,13.30
2022-10-25T00:57:56.013Z,13.30
2022-10-25T01:00:23.829Z,13.30
2022-10-25T01:02:52.543Z,13.30
2022-10-25T01:05:22.700Z,13.40
2022-10-25T01:07:50.497Z,13.40
2022-10-25T01:10:18.404Z,13.50
2022-10-25T01:12:48.559Z,13.50
2022-10-25T01:15:19.293Z,13.50
2022-10-25T01:17:55.222Z,13.60
2022-10-25T01:20:57.806Z,13.60
2022-10-25T01:23:54.213Z,13.60
2022-10-25T01:26:59.098Z,13.60
2022-10-25T01:29:48.829Z,13.70
2022-10-25T01:32:23.597Z,13.70
2022-10-25T01:34:57.026Z,13.70
2022-10-25T01:37:31.138Z,13.70
2022-10-25T01:40:06.896Z,13.70
2022-10-25T01:42:39.587Z,13.70
2022-10-25T01:45:11.852Z,13.70
2022-10-25T01:47:44.881Z,13.70
2022-10-25T01:50:17.108Z,13.70
2022-10-25T01:52:44.861Z,13.70
2022-10-25T01:55:15.031Z,13.70
2022-10-25T01:58:04.647Z,13.70
2022-10-25T02:00:42.310Z,13.70
2022-10-25T02:03:21.240Z,13.70
2022-10-25T02:06:01.441Z,13.70
2022-10-25T02:08:35.683Z,13.70
2022-10-25T02:11:10.133Z,13.60
2022-10-25T02:13:45.842Z,13.70
2022-10-25T02:16:18.471Z,13.70
2022-10-25T02:18:50.237Z,13.70
2022-10-25T02:21:20.088Z,13.70
2022-10-25T02:23:49.965Z,13.70
2022-10-25T02:26:20.786Z,13.60
2022-10-25T02:28:49.792Z,13.60
2022-10-25T02:31:22.566Z,13.60
2022-10-25T02:33:51.871Z,13.60
2022-10-25T02:36:21.904Z,13.60
2022-10-25T02:38:53.124Z,13.60
2022-10-25T02:41:21.996Z,13.60
2022-10-25T02:43:50.495Z,13.60
2022-10-25T02:46:22.051Z,13.60
2022-10-25T02:48:51.280Z,13.60
2022-10-25T02:51:22.915Z,13.60
2022-10-25T02:53:50.888Z,13.60
2022-10-25T02:56:20.564Z,13.70
2022-10-25T02:58:49.960Z,13.70
2022-10-25T03:01:19.391Z,13.70
2022-10-25T03:03:47.704Z,13.70
2022-10-25T03:06:17.141Z,13.70
2022-10-25T03:08:46.201Z,13.70
2022-10-25T03:11:17.374Z,13.70
2022-10-25T03:13:45.438Z,13.70
2022-10-25T03:16:13.256Z,13.70
2022-10-25T03:18:40.990Z,13.70
2022-10-25T03:21:08.910Z,13.70
2022-10-25T03:23:37.942Z,13.70
2022-10-25T03:26:06.126Z,13.70
2022-10-25T03:28:33.899Z,13.70
2022-10-25T03:31:01.681Z,13.70
2022-10-25T03:35:57.360Z,13.70
2022-10-25T03:38:25.060Z,13.80
2022-10-25T03:40:54.503Z,13.80
2022-10-25T03:45:50.980Z,13.80
2022-10-25T03:48:18.872Z,13.80
2022-10-25T03:50:46.568Z,13.90
2022-10-25T03:53:14.332Z,13.90
2022-10-25T03:55:43.375Z,13.90
2022-10-25T03:58:12.711Z,13.90
2022-10-25T04:00:40.501Z,13.90
2022-10-25T04:03:08.332Z,13.90
2022-10-25T04:05:36.131Z,13.90
2022-10-25T04:08:03.921Z,13.90
2022-10-25T04:10:31.733Z,13.90
2022-10-25T04:12:59.631Z,13.90
2022-10-25T04:15:28.941Z,13.90
2022-10-25T04:17:56.653Z,13.90
2022-10-25T04:20:27.013Z,13.90
2022-10-25T04:22:56.320Z,13.90
2022-10-25T04:25:24.423Z,13.80
2022-10-25T04:27:54.242Z,13.80
2022-10-25T04:30:21.993Z,13.80
2022-10-25T04:32:52.358Z,13.70
2022-10-25T04:35:20.249Z,13.60
2022-10-25T04:37:47.967Z,13.60
2022-10-25T04:40:15.880Z,13.60
2022-10-25T04:42:43.606Z,13.60
2022-10-25T04:45:11.742Z,13.50
2022-10-25T04:47:39.771Z,13.50
2022-10-25T04:50:09.745Z,13.50
2022-10-25T04:52:37.531Z,13.50
2022-10-25T04:55:05.840Z,13.50
2022-10-25T04:57:33.560Z,13.50
2022-10-25T05:00:01.347Z,13.50
2022-10-25T05:02:29.156Z,13.50
2022-10-25T05:04:57.957Z,13.50
2022-10-25T05:07:27.093Z,13.50
2022-10-25T05:09:54.786Z,13.40
2022-10-25T05:12:24.742Z,13.50
2022-10-25T05:14:52.455Z,13.40
2022-10-25T05:17:20.204Z,13.40
2022-10-25T05:19:48.073Z,13.40
2022-10-25T05:22:16.031Z,13.30
2022-10-25T05:24:46.598Z,13.30
2022-10-25T05:27:14.364Z,13.30
2022-10-25T05:29:42.104Z,13.20
2022-10-25T05:32:09.931Z,13.30
2022-10-25T05:34:37.660Z,13.20
2022-10-25T05:37:05.539Z,13.30
2022-10-25T05:39:33.271Z,13.20
2022-10-25T05:42:06.242Z,13.20
2022-10-25T05:44:36.060Z,13.20
2022-10-25T05:47:06.748Z,13.20
2022-10-25T05:49:39.496Z,13.20
2022-10-25T05:52:08.536Z,13.30
2022-10-25T05:54:36.706Z,13.30
2022-10-25T05:57:05.945Z,13.30
2022-10-25T05:59:33.764Z,13.30
2022-10-25T06:02:01.593Z,13.30
2022-10-25T06:04:29.493Z,13.40
2022-10-25T06:06:57.945Z,13.40
2022-10-25T06:09:25.732Z,13.50
2022-10-25T06:11:53.473Z,13.50
2022-10-25T06:14:22.717Z,13.60
2022-10-25T06:16:50.601Z,13.60
2022-10-25T06:19:18.378Z,13.60
2022-10-25T06:21:46.812Z,13.60
2022-10-25T06:24:14.591Z,13.70
2022-10-25T06:26:42.344Z,13.70
2022-10-25T06:29:10.490Z,13.70
2022-10-25T06:31:39.603Z,13.70
2022-10-25T06:34:07.839Z,13.70
2022-10-25T06:36:35.596Z,13.70
2022-10-25T06:39:05.952Z,13.70
2022-10-25T06:41:36.841Z,13.70
2022-10-25T06:44:06.641Z,13.70
2022-10-25T06:46:57.893Z,13.70
2022-10-25T06:49:25.970Z,13.70
2022-10-25T06:51:53.706Z,13.70
2022-10-25T06:54:21.403Z,13.80
2022-10-25T06:56:51.716Z,13.80
2022-10-25T06:59:20.414Z,13.80
2022-10-25T07:01:48.631Z,13.90
2022-10-25T07:04:16.909Z,13.90
2022-10-25T07:06:48.762Z,13.90
2022-10-25T07:09:19.231Z,13.90
2022-10-25T07:11:46.944Z,13.90
2022-10-25T07:14:14.668Z,13.90
2022-10-25T07:16:42.384Z,13.90
2022-10-25T07:19:10.677Z,13.90
2022-10-25T07:21:39.046Z,13.90
2022-10-25T07:24:11.036Z,13.90
2022-10-25T07:26:40.148Z,13.90
2022-10-25T07:29:07.873Z,14.00
2022-10-25T07:31:39.045Z,14.00
2022-10-25T07:34:07.218Z,14.00
2022-10-25T07:36:35.389Z,14.00
2022-10-25T07:39:03.184Z,14.10
2022-10-25T07:41:32.240Z,14.00
2022-10-25T07:44:00.082Z,14.10
2022-10-25T07:46:27.799Z,14.10
2022-10-25T07:48:55.485Z,14.10
2022-10-25T07:51:24.896Z,14.20
2022-10-25T07:53:54.330Z,14.20
2022-10-25T07:56:23.511Z,14.30
2022-10-25T07:58:54.550Z,14.30
2022-10-25T08:01:24.121Z,14.40
2022-10-25T08:03:52.899Z,14.40
2022-10-25T08:06:21.542Z,14.40
2022-10-25T08:08:49.824Z,14.50
2022-10-25T08:11:18.208Z,14.50
2022-10-25T08:13:48.498Z,14.60
2022-10-25T08:16:17.577Z,14.60
2022-10-25T08:18:45.282Z,14.70
2022-10-25T08:21:13.205Z,14.70
2022-10-25T08:23:42.943Z,14.70
2022-10-25T08:26:11.691Z,14.70
2022-10-25T08:28:39.454Z,14.80
2022-10-25T08:31:07.415Z,14.90
2022-10-25T08:33:39.067Z,14.90
2022-10-25T08:36:08.003Z,14.90
2022-10-25T08:38:35.797Z,14.90
2022-10-25T08:41:10.177Z,14.90
2022-10-25T08:44:11.730Z,15.00
2022-10-25T08:46:43.305Z,15.00
2022-10-25T08:49:19.629Z,15.10
2022-10-25T08:51:50.558Z,15.10
2022-10-25T08:54:25.353Z,15.20
2022-10-25T08:57:14.726Z,15.20
2022-10-25T08:59:49.228Z,15.30
2022-10-25T09:02:33.170Z,15.30
2022-10-25T09:05:02.665Z,15.30
2022-10-25T09:07:50.042Z,15.30
2022-10-25T09:10:28.421Z,15.30
2022-10-25T09:13:10.902Z,15.40
2022-10-25T09:15:51.099Z,15.40
2022-10-25T09:18:20.247Z,15.50
2022-10-25T09:20:51.962Z,15.50
2022-10-25T09:23:30.570Z,15.50
2022-10-25T09:26:04.826Z,15.60
2022-10-25T09:28:47.960Z,15.60
2022-10-25T09:31:18.093Z,15.70
2022-10-25T09:33:48.476Z,15.60
2022-10-25T09:36:18.110Z,15.60
2022-10-25T09:38:51.557Z,15.60
2022-10-25T09:41:23.950Z,15.60
2022-10-25T09:43:56.468Z,15.60
2022-10-25T09:46:29.915Z,15.60
2022-10-25T09:49:03.810Z,15.50
2022-10-25T09:51:40.677Z,15.50
2022-10-25T09:54:18.653Z,15.50
2022-10-25T09:56:46.355Z,15.50
2022-10-25T09:59:15.455Z,15.40
2022-10-25T10:01:43.979Z,15.40
2022-10-25T10:04:26.282Z,15.40
2022-10-25T10:06:59.817Z,15.40
2022-10-25T10:09:31.854Z,15.40
2022-10-25T10:12:03.972Z,15.40
2022-10-25T10:14:38.837Z,15.40
2022-10-25T10:17:11.993Z,15.50
2022-10-25T10:19:40.417Z,15.50
2022-10-25T10:22:13.994Z,15.50
2022-10-25T10:24:44.617Z,15.50
2022-10-25T10:27:25.189Z,15.50
2022-10-25T10:29:58.741Z,15.50
2022-10-25T10:32:30.013Z,15.50
2022-10-25T10:34:58.840Z,15.50
2022-10-25T10:37:28.750Z,15.40
2022-10-25T10:39:59.821Z,15.30
2022-10-25T10:42:37.090Z,15.30
2022-10-25T10:45:16.458Z,15.30
2022-10-25T10:47:45.966Z,15.30
2022-10-25T10:50:25.529Z,15.30
2022-10-25T10:53:00.222Z,15.40
2022-10-25T10:55:30.685Z,15.40
2022-10-25T10:58:03.603Z,15.40
2022-10-25T11:00:32.881Z,15.40
2022-10-25T11:03:00.982Z,15.40
2022-10-25T11:05:30.342Z,15.50
2022-10-25T11:08:01.272Z,15.50
2022-10-25T11:10:32.766Z,15.50
2022-10-25T11:13:08.946Z,15.60
2022-10-25T11:15:49.745Z,15.60
2022-10-25T11:18:21.575Z,15.70
2022-10-25T11:20:56.646Z,15.80
2022-10-25T11:23:31.401Z,15.80
2022-10-25T11:26:03.477Z,15.90
2022-10-25T11:28:45.092Z,15.90
2022-10-25T11:31:21.486Z,15.80
2022-10-25T11:34:05.607Z,15.80
2022-10-25T11:36:49.036Z,15.90
2022-10-25T11:39:32.282Z,16.00
2022-10-25T11:42:07.550Z,16.10
2022-10-25T11:45:17.991Z,16.10
2022-10-25T11:47:59.664Z,16.10
2022-10-25T11:50:34.831Z,16.20
2022-10-25T11:53:17.130Z,16.20
2022-10-25T11:55:51.043Z,16.20
2022-10-25T11:58:37.761Z,16.20
2022-10-25T12:01:16.311Z,16.10
2022-10-25T12:03:56.566Z,16.00
2022-10-25T12:06:34.816Z,16.00
2022-10-25T12:09:10.739Z,16.00
2022-10-25T12:11:44.633Z,16.00
2022-10-25T12:14:16.277Z,16.00
2022-10-25T12:16:44.461Z,16.00
2022-10-25T12:19:19.521Z,16.20
2022-10-25T12:21:54.012Z,16.40
2022-10-25T12:24:25.646Z,16.60
2022-10-25T12:26:56.415Z,16.70
2022-10-25T12:29:30.629Z,16.70
2022-10-25T12:32:02.098Z,16.80
2022-10-25T12:34:38.874Z,16.80
2022-10-25T12:37:12.668Z,16.90
2022-10-25T12:39:42.074Z,16.90
2022-10-25T12:42:17.107Z,17.10
2022-10-25T12:45:12.643Z,17.20
2022-10-25T12:47:52.325Z,17.30
2022-10-25T12:50:48.634Z,17.30
2022-10-25T12:53:53.626Z,17.30
2022-10-25T12:56:32.414Z,17.40
2022-10-25T12:59:09.573Z,17.40
2022-10-25T13:01:55.274Z,17.30
2022-10-25T13:04:52.154Z,17.30
2022-10-25T13:07:21.936Z,17.30
2022-10-25T13:09:50.101Z,17.20
2022-10-25T13:12:23.856Z,17.20
2022-10-25T13:14:55.669Z,17.30
2022-10-25T13:17:48.259Z,17.30
2022-10-25T13:20:50.506Z,17.30
2022-10-25T13:24:02.429Z,17.30
2022-10-25T13:26:49.860Z,17.40
2022-10-25T13:29:50.091Z,17.40
2022-10-25T13:32:21.217Z,17.40
2022-10-25T13:34:49.874Z,17.50
2022-10-25T13:37:41.594Z,17.50
2022-10-25T13:40:23.213Z,17.40
2022-10-25T13:43:00.829Z,17.40
2022-10-25T13:45:39.342Z,17.40
2022-10-25T13:48:19.978Z,17.30
2022-10-25T13:50:54.260Z,17.20
2022-10-25T13:53:24.481Z,17.20
2022-10-25T13:56:00.286Z,17.10
2022-10-25T13:58:48.783Z,17.10
2022-10-25T14:01:58.240Z,17.10
2022-10-25T14:04:40.660Z,17.10
2022-10-25T14:07:47.643Z,17.10
2022-10-25T14:10:21.627Z,17.10
2022-10-25T14:12:51.086Z,17.00
2022-10-25T14:15:31.280Z,16.90
2022-10-25T14:17:59.727Z,16.90
2022-10-25T14:20:31.599Z,16.90
2022-10-25T14:23:03.135Z,16.80
2022-10-25T14:25:35.948Z,16.70
2022-10-25T14:28:08.657Z,16.60
2022-10-25T14:30:41.193Z,16.60
2022-10-25T14:33:32.151Z,16.50
2022-10-25T14:36:10.130Z,16.40
2022-10-25T14:38:51.027Z,16.30
2022-10-25T14:41:23.099Z,16.30
2022-10-25T14:43:51.058Z,16.10
2022-10-25T14:46:21.692Z,16.00
2022-10-25T14:48:53.831Z,15.90
2022-10-25T14:51:26.819Z,15.80
2022-10-25T14:53:58.546Z,15.60
2022-10-25T14:56:30.945Z,15.40
2022-10-25T14:59:00.301Z,15.20
2022-10-25T15:01:28.422Z,15.10
2022-10-25T15:04:00.034Z,15.00
2022-10-25T15:06:32.223Z,14.90
2022-10-25T15:09:41.256Z,14.80
2022-10-25T15:12:07.399Z,14.70
2022-10-25T15:14:36.381Z,14.60
2022-10-25T15:17:05.623Z,14.50
2022-10-25T15:19:54.384Z,14.50
2022-10-25T15:22:31.464Z,14.40
2022-10-25T15:24:59.343Z,14.40
2022-10-25T15:27:35.112Z,14.30
2022-10-25T15:30:04.880Z,14.20
2022-10-25T15:32:34.115Z,14.20
2022-10-25T15:35:03.803Z,14.20
2022-10-25T15:37:32.888Z,14.10
2022-10-25T15:40:01.178Z,14.10
2022-10-25T15:42:29.076Z,14.00
2022-10-25T15:44:56.820Z,14.00
2022-10-25T15:47:36.145Z,13.90
2022-10-25T15:50:11.698Z,13.90
2022-10-25T15:52:43.132Z,13.80
2022-10-25T15:55:19.334Z,13.80
2022-10-25T15:57:47.205Z,13.70
2022-10-25T16:00:16.252Z,13.70
2022-10-25T16:02:44.203Z,13.70
2022-10-25T16:05:19.986Z,13.70
2022-10-25T16:07:50.823Z,13.60
2022-10-25T16:10:19.862Z,13.50
2022-10-25T16:12:54.599Z,13.50
2022-10-25T16:15:26.157Z,13.50
2022-10-25T16:17:54.173Z,13.40
2022-10-25T16:20:24.305Z,13.40
2022-10-25T16:22:54.692Z,13.40
2022-10-25T16:25:23.720Z,13.30
2022-10-25T16:27:51.498Z,13.30
2022-10-25T16:30:21.682Z,13.20
2022-10-25T16:32:49.665Z,13.20
2022-10-25T16:35:18.763Z,13.20
2022-10-25T16:37:47.951Z,13.20
2022-10-25T16:40:18.350Z,13.10
2022-10-25T16:42:46.757Z,13.10
2022-10-25T16:45:18.404Z,13.10
2022-10-25T16:47:46.194Z,13.10
2022-10-25T16:50:22.987Z,13.10
2022-10-25T16:52:51.269Z,13.10
2022-10-25T16:55:20.635Z,13.10
2022-10-25T17:00:21.242Z,13.10
2022-10-25T17:02:49.283Z,13.10
2022-10-25T17:05:19.913Z,13.10
2022-10-25T17:07:48.039Z,13.10
2022-10-25T17:10:16.635Z,13.10
2022-10-25T17:12:47.875Z,13.00
2022-10-25T17:15:19.031Z,13.00
2022-10-25T17:17:47.350Z,13.00
2022-10-25T17:20:17.445Z,13.00
2022-10-25T17:22:45.751Z,13.00
2022-10-25T17:25:13.875Z,13.00
2022-10-25T17:27:47.397Z,13.00
2022-10-25T17:30:20.205Z,12.90
2022-10-25T17:32:48.361Z,12.90
2022-10-25T17:35:16.184Z,12.90
2022-10-25T17:37:44.454Z,12.90
2022-10-25T17:40:14.572Z,12.80
2022-10-25T17:42:42.343Z,12.80
2022-10-25T17:45:11.005Z,12.80
2022-10-25T17:47:42.705Z,12.90
2022-10-25T17:50:14.175Z,12.90
2022-10-25T17:52:43.755Z,12.80
2022-10-25T17:55:11.891Z,12.80
2022-10-25T17:57:39.974Z,12.80
2022-10-25T18:00:14.045Z,12.80
2022-10-25T18:02:50.561Z,12.80
2022-10-25T18:05:20.653Z,12.80
2022-10-25T18:07:49.501Z,12.70
2022-10-25T18:10:19.697Z,12.80
2022-10-25T18:12:50.945Z,12.70
2022-10-25T18:15:19.318Z,12.70
2022-10-25T18:17:49.281Z,12.70
2022-10-25T18:20:17.839Z,12.70
2022-10-25T18:22:45.874Z,12.70
2022-10-25T18:25:13.598Z,12.60
2022-10-25T18:27:41.365Z,12.60
2022-10-25T18:30:13.047Z,12.60
2022-10-25T18:32:40.844Z,12.60
2022-10-25T18:35:10.799Z,12.60
2022-10-25T18:37:38.595Z,12.60
2022-10-25T18:40:10.144Z,12.60
2022-10-25T18:42:38.152Z,12.60
2022-10-25T18:45:06.908Z,12.50
2022-10-25T18:47:34.789Z,12.50
2022-10-25T18:50:02.818Z,12.50
2022-10-25T18:52:31.940Z,12.50
2022-10-25T18:54:59.667Z,12.50
2022-10-25T18:57:29.551Z,12.50
2022-10-25T18:59:59.837Z,12.50
2022-10-25T19:02:27.664Z,12.50
2022-10-25T19:04:55.621Z,12.40
2022-10-25T19:07:23.655Z,12.40
2022-10-25T19:09:52.894Z,12.40
2022-10-25T19:12:20.593Z,12.50
2022-10-25T19:17:15.987Z,12.40
2022-10-25T19:19:43.742Z,12.40
2022-10-25T19:22:11.467Z,12.40
2022-10-25T19:24:39.223Z,12.40
2022-10-25T19:27:08.310Z,12.40
2022-10-25T19:29:36.042Z,12.40
2022-10-25T19:32:03.859Z,12.40
2022-10-25T19:34:32.520Z,12.40
2022-10-25T19:37:04.163Z,12.40
2022-10-25T19:39:32.139Z,12.40
2022-10-25T19:42:02.423Z,12.40
2022-10-25T19:44:31.570Z,12.40
2022-10-25T19:46:59.537Z,12.40
2022-10-25T19:49:27.548Z,12.40
2022-10-25T19:51:55.365Z,12.30
2022-10-25T19:54:23.077Z,12.30
2022-10-25T19:56:51.210Z,12.30
2022-10-25T19:59:19.181Z,12.40
2022-10-25T20:01:49.171Z,12.40
2022-10-25T20:04:17.110Z,12.40
2022-10-25T20:06:44.992Z,12.40
2022-10-25T20:09:12.780Z,12.40
2022-10-25T20:11:40.630Z,12.30
2022-10-25T20:14:09.207Z,12.30
2022-10-25T20:16:36.946Z,12.30
2022-10-25T20:19:06.206Z,12.30
2022-10-25T20:21:36.198Z,12.30
2022-10-25T20:24:07.955Z,12.30
2022-10-25T20:26:38.465Z,12.30
2022-10-25T20:29:10.508Z,12.20
2022-10-25T20:31:38.251Z,12.20
2022-10-25T20:34:07.321Z,12.20
2022-10-25T20:36:35.413Z,12.20
2022-10-25T20:39:04.967Z,12.20
2022-10-25T20:41:34.927Z,12.20
2022-10-25T20:44:04.592Z,12.20
2022-10-25T20:46:33.819Z,12.20
2022-10-25T20:49:04.838Z,12.20
2022-10-25T20:51:39.138Z,12.20
2022-10-25T20:54:09.505Z,12.20
2022-10-25T20:56:39.259Z,12.20
2022-10-25T20:59:09.814Z,12.10
2022-10-25T21:01:37.802Z,12.10
2022-10-25T21:04:06.039Z,12.10
2022-10-25T21:06:35.297Z,12.10
2022-10-25T21:09:03.265Z,12.10
2022-10-25T21:11:32.521Z,12.10
2022-10-25T21:14:00.297Z,12.10
2022-10-25T21:16:30.535Z,12.00
2022-10-25T21:18:58.241Z,12.10
2022-10-25T21:21:25.957Z,12.00
2022-10-25T21:23:57.641Z,12.00
2022-10-25T21:26:25.682Z,12.00
2022-10-25T21:28:58.929Z,12.00
2022-10-25T21:31:29.104Z,12.00
2022-10-25T21:33:59.473Z,12.00
2022-10-25T21:36:32.572Z,12.00
2022-10-25T21:39:01.626Z,12.00
2022-10-25T21:41:35.487Z,12.00
2022-10-25T21:44:03.350Z,12.00
2022-10-25T21:46:31.082Z,12.00
2022-10-25T21:49:01.139Z,11.90
2022-10-25T21:51:28.833Z,12.00
2022-10-25T21:53:56.509Z,11.90
2022-10-25T21:56:30.669Z,11.90
2022-10-25T21:59:00.398Z,11.90
2022-10-25T22:01:30.443Z,11.90
2022-10-25T22:03:58.964Z,11.90
2022-10-25T22:06:28.850Z,11.90
2022-10-25T22:08:57.173Z,11.90
2022-10-25T22:11:28.389Z,11.90
2022-10-25T22:13:57.455Z,11.90
2022-10-25T22:16:25.759Z,11.90
2022-10-25T22:18:57.586Z,11.80
2022-10-25T22:21:26.354Z,11.80
2022-10-25T22:23:55.755Z,11.80
2022-10-25T22:26:24.317Z,11.80
2022-10-25T22:28:55.062Z,11.80
2022-10-25T22:31:23.512Z,11.80
2022-10-25T22:33:54.692Z,11.80
2022-10-25T22:36:24.376Z,11.80
2022-10-25T22:38:52.164Z,11.80
2022-10-25T22:41:21.277Z,11.80
2022-10-25T22:43:50.239Z,11.80
2022-10-25T22:46:22.172Z,11.70
2022-10-25T22:48:50.289Z,11.70
2022-10-25T22:51:18.185Z,11.70
2022-10-25T22:53:46.229Z,11.70
2022-10-25T22:56:16.520Z,11.70
2022-10-25T22:58:48.604Z,11.70
2022-10-25T23:01:20.114Z,11.70
2022-10-25T23:03:50.278Z,11.60
2022-10-25T23:06:20.573Z,11.60
2022-10-25T23:08:48.618Z,11.60
2022-10-25T23:11:18.013Z,11.60
2022-10-25T23:13:46.086Z,11.60
2022-10-25T23:16:15.276Z,11.60
2022-10-25T23:18:45.134Z,11.60
2022-10-25T23:21:17.125Z,11.60
2022-10-25T23:23:45.715Z,11.50
2022-10-25T23:26:16.604Z,11.60
2022-10-25T23:28:44.382Z,11.50
2022-10-25T23:31:13.655Z,11.50
2022-10-25T23:33:42.580Z,11.50
2022-10-25T23:36:13.876Z,11.50
2022-10-25T23:38:41.709Z,11.40
2022-10-25T23:41:09.767Z,11.40
2022-10-25T23:43:37.565Z,11.40
2022-10-25T23:46:06.350Z,11.30
2022-10-25T23:48:34.311Z,11.30
2022-10-25T23:51:03.601Z,11.30
2022-10-25T23:53:33.224Z,11.30
2022-10-25T23:56:01.576Z,11.30
2022-10-25T23:58:29.429Z,11.20
